sensor_id;sensor_type;location;lat;lon;timestamp;P1;durP1;ratioP1;P2;durP2;ratioP2
62903;SDS011;49000;50.698;13.322;2023-12-04T00:01:31;9.07;;;4.10;;
62903;SDS011;49000;50.698;13.322;2023-12-04T00:03:57;7.40;;;3.90;;
62903;SDS011;49000;50.698;13.322;2023-12-04T00:06:23;6.77;;;3.30;;
62903;SDS011;49000;50.698;13.322;2023-12-04T00:08:48;7.43;;;3.33;;
62903;SDS011;49000;50.698;13.322;2023-12-04T00:11:14;7.13;;;3.77;;
62903;SDS011;49000;50.698;13.322;2023-12-04T00:13:39;7.23;;;3.70;;
62903;SDS011;49000;50.698;13.322;2023-12-04T00:16:05;7.57;;;3.37;;
62903;SDS011;49000;50.698;13.322;2023-12-04T00:18:31;7.10;;;3.30;;
62903;SDS011;49000;50.698;13.322;2023-12-04T00:20:56;6.73;;;3.20;;
62903;SDS011;49000;50.698;13.322;2023-12-04T00:23:22;6.43;;;3.03;;
62903;SDS011;49000;50.698;13.322;2023-12-04T00:25:47;7.07;;;3.03;;
62903;SDS011;49000;50.698;13.322;2023-12-04T00:28:13;6.17;;;3.50;;
62903;SDS011;49000;50.698;13.322;2023-12-04T00:30:38;6.53;;;3.53;;
62903;SDS011;49000;50.698;13.322;2023-12-04T00:33:04;6.93;;;3.33;;
62903;SDS011;49000;50.698;13.322;2023-12-04T00:35:29;7.90;;;3.30;;
62903;SDS011;49000;50.698;13.322;2023-12-04T00:37:55;6.47;;;3.07;;
62903;SDS011;49000;50.698;13.322;2023-12-04T00:40:20;6.13;;;2.80;;
62903;SDS011;49000;50.698;13.322;2023-12-04T00:42:45;6.37;;;3.07;;
62903;SDS011;49000;50.698;13.322;2023-12-04T00:45:11;6.43;;;3.03;;
62903;SDS011;49000;50.698;13.322;2023-12-04T00:47:36;8.23;;;3.50;;
62903;SDS011;49000;50.698;13.322;2023-12-04T00:50:02;6.20;;;2.97;;
62903;SDS011;49000;50.698;13.322;2023-12-04T00:52:29;9.03;;;3.87;;
62903;SDS011;49000;50.698;13.322;2023-12-04T00:54:54;8.87;;;3.63;;
62903;SDS011;49000;50.698;13.322;2023-12-04T00:57:20;7.20;;;3.13;;
62903;SDS011;49000;50.698;13.322;2023-12-04T00:59:46;8.60;;;3.80;;
62903;SDS011;49000;50.698;13.322;2023-12-04T01:02:11;7.10;;;3.27;;
62903;SDS011;49000;50.698;13.322;2023-12-04T01:04:39;5.43;;;3.13;;
62903;SDS011;49000;50.698;13.322;2023-12-04T01:07:06;6.90;;;3.60;;
62903;SDS011;49000;50.698;13.322;2023-12-04T01:09:34;5.43;;;3.20;;
62903;SDS011;49000;50.698;13.322;2023-12-04T01:12:00;7.77;;;2.93;;
62903;SDS011;49000;50.698;13.322;2023-12-04T01:14:26;6.50;;;3.37;;
62903;SDS011;49000;50.698;13.322;2023-12-04T01:16:51;6.73;;;3.23;;
62903;SDS011;49000;50.698;13.322;2023-12-04T01:19:17;6.97;;;3.23;;
62903;SDS011;49000;50.698;13.322;2023-12-04T01:21:42;7.90;;;3.50;;
62903;SDS011;49000;50.698;13.322;2023-12-04T01:24:07;6.37;;;3.23;;
62903;SDS011;49000;50.698;13.322;2023-12-04T01:26:33;8.23;;;4.10;;
62903;SDS011;49000;50.698;13.322;2023-12-04T01:28:58;8.67;;;4.17;;
62903;SDS011;49000;50.698;13.322;2023-12-04T01:31:24;6.00;;;3.40;;
62903;SDS011;49000;50.698;13.322;2023-12-04T01:33:49;6.47;;;3.30;;
62903;SDS011;49000;50.698;13.322;2023-12-04T01:36:15;7.97;;;3.83;;
62903;SDS011;49000;50.698;13.322;2023-12-04T01:38:40;6.87;;;3.60;;
62903;SDS011;49000;50.698;13.322;2023-12-04T01:41:06;6.87;;;3.30;;
62903;SDS011;49000;50.698;13.322;2023-12-04T01:43:31;6.70;;;3.23;;
62903;SDS011;49000;50.698;13.322;2023-12-04T01:45:57;6.60;;;3.37;;
62903;SDS011;49000;50.698;13.322;2023-12-04T01:48:25;5.90;;;3.57;;
62903;SDS011;49000;50.698;13.322;2023-12-04T01:50:51;9.87;;;3.83;;
62903;SDS011;49000;50.698;13.322;2023-12-04T01:53:17;8.37;;;4.17;;
62903;SDS011;49000;50.698;13.322;2023-12-04T01:55:43;6.30;;;3.27;;
62903;SDS011;49000;50.698;13.322;2023-12-04T01:58:09;7.90;;;3.20;;
62903;SDS011;49000;50.698;13.322;2023-12-04T02:00:35;7.23;;;3.07;;
62903;SDS011;49000;50.698;13.322;2023-12-04T02:03:01;5.93;;;3.23;;
62903;SDS011;49000;50.698;13.322;2023-12-04T02:05:27;6.47;;;3.27;;
62903;SDS011;49000;50.698;13.322;2023-12-04T02:07:53;5.80;;;3.40;;
62903;SDS011;49000;50.698;13.322;2023-12-04T02:10:19;6.83;;;3.13;;
62903;SDS011;49000;50.698;13.322;2023-12-04T02:12:45;6.63;;;3.50;;
62903;SDS011;49000;50.698;13.322;2023-12-04T02:15:10;5.80;;;3.20;;
62903;SDS011;49000;50.698;13.322;2023-12-04T02:17:36;6.53;;;3.90;;
62903;SDS011;49000;50.698;13.322;2023-12-04T02:20:02;6.70;;;3.10;;
62903;SDS011;49000;50.698;13.322;2023-12-04T02:22:28;6.63;;;3.80;;
62903;SDS011;49000;50.698;13.322;2023-12-04T02:24:54;8.70;;;3.70;;
62903;SDS011;49000;50.698;13.322;2023-12-04T02:27:25;6.27;;;3.20;;
62903;SDS011;49000;50.698;13.322;2023-12-04T02:29:56;6.90;;;3.10;;
62903;SDS011;49000;50.698;13.322;2023-12-04T02:32:24;6.53;;;3.30;;
62903;SDS011;49000;50.698;13.322;2023-12-04T02:34:55;6.47;;;3.20;;
62903;SDS011;49000;50.698;13.322;2023-12-04T02:37:21;8.67;;;3.77;;
62903;SDS011;49000;50.698;13.322;2023-12-04T02:39:49;6.23;;;3.20;;
62903;SDS011;49000;50.698;13.322;2023-12-04T02:42:17;7.20;;;3.17;;
62903;SDS011;49000;50.698;13.322;2023-12-04T02:44:44;5.87;;;2.43;;
62903;SDS011;49000;50.698;13.322;2023-12-04T02:47:09;6.90;;;3.70;;
62903;SDS011;49000;50.698;13.322;2023-12-04T02:49:35;6.93;;;3.73;;
62903;SDS011;49000;50.698;13.322;2023-12-04T02:52:00;7.07;;;3.50;;
62903;SDS011;49000;50.698;13.322;2023-12-04T02:54:27;6.10;;;3.67;;
62903;SDS011;49000;50.698;13.322;2023-12-04T02:56:53;5.77;;;3.33;;
62903;SDS011;49000;50.698;13.322;2023-12-04T02:59:18;7.40;;;3.30;;
62903;SDS011;49000;50.698;13.322;2023-12-04T03:01:44;8.40;;;3.93;;
62903;SDS011;49000;50.698;13.322;2023-12-04T03:04:09;5.30;;;2.90;;
62903;SDS011;49000;50.698;13.322;2023-12-04T03:06:35;7.53;;;2.90;;
62903;SDS011;49000;50.698;13.322;2023-12-04T03:09:02;6.60;;;2.60;;
62903;SDS011;49000;50.698;13.322;2023-12-04T03:11:29;6.47;;;3.30;;
62903;SDS011;49000;50.698;13.322;2023-12-04T03:13:55;7.47;;;3.03;;
62903;SDS011;49000;50.698;13.322;2023-12-04T03:16:21;5.77;;;3.13;;
62903;SDS011;49000;50.698;13.322;2023-12-04T03:18:46;6.80;;;3.37;;
62903;SDS011;49000;50.698;13.322;2023-12-04T03:21:12;6.57;;;2.97;;
62903;SDS011;49000;50.698;13.322;2023-12-04T03:23:37;8.17;;;3.57;;
62903;SDS011;49000;50.698;13.322;2023-12-04T03:26:03;7.77;;;3.70;;
62903;SDS011;49000;50.698;13.322;2023-12-04T03:28:28;7.60;;;3.50;;
62903;SDS011;49000;50.698;13.322;2023-12-04T03:30:54;7.90;;;4.00;;
62903;SDS011;49000;50.698;13.322;2023-12-04T03:33:19;6.87;;;3.37;;
62903;SDS011;49000;50.698;13.322;2023-12-04T03:35:45;8.00;;;3.83;;
62903;SDS011;49000;50.698;13.322;2023-12-04T03:38:11;7.10;;;3.53;;
62903;SDS011;49000;50.698;13.322;2023-12-04T03:40:36;7.10;;;3.40;;
62903;SDS011;49000;50.698;13.322;2023-12-04T03:43:01;8.53;;;3.53;;
62903;SDS011;49000;50.698;13.322;2023-12-04T03:45:27;7.17;;;3.57;;
62903;SDS011;49000;50.698;13.322;2023-12-04T03:47:52;10.03;;;4.33;;
62903;SDS011;49000;50.698;13.322;2023-12-04T03:50:18;6.53;;;3.60;;
62903;SDS011;49000;50.698;13.322;2023-12-04T03:52:43;9.40;;;3.90;;
62903;SDS011;49000;50.698;13.322;2023-12-04T03:55:09;8.53;;;4.00;;
62903;SDS011;49000;50.698;13.322;2023-12-04T03:57:35;5.93;;;3.17;;
62903;SDS011;49000;50.698;13.322;2023-12-04T04:00:00;8.33;;;3.90;;
62903;SDS011;49000;50.698;13.322;2023-12-04T04:02:26;6.63;;;3.27;;
62903;SDS011;49000;50.698;13.322;2023-12-04T04:04:52;8.37;;;3.90;;
62903;SDS011;49000;50.698;13.322;2023-12-04T04:07:18;6.40;;;3.30;;
62903;SDS011;49000;50.698;13.322;2023-12-04T04:09:44;8.23;;;4.00;;
62903;SDS011;49000;50.698;13.322;2023-12-04T04:12:10;7.03;;;3.10;;
62903;SDS011;49000;50.698;13.322;2023-12-04T04:14:35;9.53;;;3.80;;
62903;SDS011;49000;50.698;13.322;2023-12-04T04:17:01;8.87;;;3.37;;
62903;SDS011;49000;50.698;13.322;2023-12-04T04:19:26;7.47;;;3.70;;
62903;SDS011;49000;50.698;13.322;2023-12-04T04:21:52;6.47;;;3.50;;
62903;SDS011;49000;50.698;13.322;2023-12-04T04:24:17;8.87;;;3.47;;
62903;SDS011;49000;50.698;13.322;2023-12-04T04:26:43;7.10;;;3.73;;
62903;SDS011;49000;50.698;13.322;2023-12-04T04:29:08;7.63;;;3.90;;
62903;SDS011;49000;50.698;13.322;2023-12-04T04:31:34;7.47;;;3.50;;
62903;SDS011;49000;50.698;13.322;2023-12-04T04:34:00;9.33;;;4.20;;
62903;SDS011;49000;50.698;13.322;2023-12-04T04:36:25;10.00;;;4.20;;
62903;SDS011;49000;50.698;13.322;2023-12-04T04:38:51;8.53;;;3.80;;
62903;SDS011;49000;50.698;13.322;2023-12-04T04:41:16;9.53;;;4.30;;
62903;SDS011;49000;50.698;13.322;2023-12-04T04:43:42;8.27;;;4.47;;
62903;SDS011;49000;50.698;13.322;2023-12-04T04:46:08;10.53;;;4.87;;
62903;SDS011;49000;50.698;13.322;2023-12-04T04:48:33;12.63;;;4.93;;
62903;SDS011;49000;50.698;13.322;2023-12-04T04:50:59;9.43;;;4.40;;
62903;SDS011;49000;50.698;13.322;2023-12-04T04:53:24;8.90;;;4.90;;
62903;SDS011;49000;50.698;13.322;2023-12-04T04:55:50;9.23;;;4.20;;
62903;SDS011;49000;50.698;13.322;2023-12-04T04:58:16;10.57;;;4.97;;
62903;SDS011;49000;50.698;13.322;2023-12-04T05:00:41;8.93;;;4.33;;
62903;SDS011;49000;50.698;13.322;2023-12-04T05:03:08;9.83;;;5.00;;
62903;SDS011;49000;50.698;13.322;2023-12-04T05:05:33;10.30;;;4.90;;
62903;SDS011;49000;50.698;13.322;2023-12-04T05:07:58;10.20;;;4.60;;
62903;SDS011;49000;50.698;13.322;2023-12-04T05:10:24;8.90;;;3.67;;
62903;SDS011;49000;50.698;13.322;2023-12-04T05:12:49;10.07;;;3.93;;
62903;SDS011;49000;50.698;13.322;2023-12-04T05:15:15;8.07;;;3.73;;
62903;SDS011;49000;50.698;13.322;2023-12-04T05:17:40;9.10;;;4.10;;
62903;SDS011;49000;50.698;13.322;2023-12-04T05:20:06;8.63;;;4.33;;
62903;SDS011;49000;50.698;13.322;2023-12-04T05:22:32;7.33;;;3.30;;
62903;SDS011;49000;50.698;13.322;2023-12-04T05:24:59;10.77;;;3.70;;
62903;SDS011;49000;50.698;13.322;2023-12-04T05:27:24;7.63;;;3.97;;
62903;SDS011;49000;50.698;13.322;2023-12-04T05:29:50;7.63;;;3.70;;
62903;SDS011;49000;50.698;13.322;2023-12-04T05:32:16;8.27;;;4.40;;
62903;SDS011;49000;50.698;13.322;2023-12-04T05:34:42;7.93;;;4.33;;
62903;SDS011;49000;50.698;13.322;2023-12-04T05:37:07;8.33;;;4.43;;
62903;SDS011;49000;50.698;13.322;2023-12-04T05:39:33;10.20;;;4.33;;
62903;SDS011;49000;50.698;13.322;2023-12-04T05:41:58;8.97;;;4.57;;
62903;SDS011;49000;50.698;13.322;2023-12-04T05:44:24;7.47;;;4.17;;
62903;SDS011;49000;50.698;13.322;2023-12-04T05:46:49;10.27;;;4.57;;
62903;SDS011;49000;50.698;13.322;2023-12-04T05:49:15;7.77;;;3.77;;
62903;SDS011;49000;50.698;13.322;2023-12-04T05:51:40;9.67;;;5.07;;
62903;SDS011;49000;50.698;13.322;2023-12-04T05:54:06;7.40;;;4.00;;
62903;SDS011;49000;50.698;13.322;2023-12-04T05:56:31;9.10;;;4.50;;
62903;SDS011;49000;50.698;13.322;2023-12-04T05:58:57;9.57;;;4.53;;
62903;SDS011;49000;50.698;13.322;2023-12-04T06:01:22;7.00;;;3.73;;
62903;SDS011;49000;50.698;13.322;2023-12-04T06:03:48;6.70;;;3.70;;
62903;SDS011;49000;50.698;13.322;2023-12-04T06:06:13;8.07;;;4.00;;
62903;SDS011;49000;50.698;13.322;2023-12-04T06:08:39;7.57;;;4.20;;
62903;SDS011;49000;50.698;13.322;2023-12-04T06:11:04;8.87;;;4.10;;
62903;SDS011;49000;50.698;13.322;2023-12-04T06:13:30;9.10;;;4.13;;
62903;SDS011;49000;50.698;13.322;2023-12-04T06:15:55;8.87;;;3.67;;
62903;SDS011;49000;50.698;13.322;2023-12-04T06:18:21;7.07;;;4.10;;
62903;SDS011;49000;50.698;13.322;2023-12-04T06:20:46;8.47;;;3.93;;
62903;SDS011;49000;50.698;13.322;2023-12-04T06:23:12;8.80;;;3.90;;
62903;SDS011;49000;50.698;13.322;2023-12-04T06:25:38;8.00;;;4.20;;
62903;SDS011;49000;50.698;13.322;2023-12-04T06:28:04;6.97;;;4.17;;
62903;SDS011;49000;50.698;13.322;2023-12-04T06:30:30;8.00;;;4.17;;
62903;SDS011;49000;50.698;13.322;2023-12-04T06:32:55;10.40;;;4.70;;
62903;SDS011;49000;50.698;13.322;2023-12-04T06:35:21;8.23;;;4.77;;
62903;SDS011;49000;50.698;13.322;2023-12-04T06:37:48;8.87;;;4.37;;
62903;SDS011;49000;50.698;13.322;2023-12-04T06:40:15;8.40;;;4.63;;
62903;SDS011;49000;50.698;13.322;2023-12-04T06:42:42;9.77;;;4.53;;
62903;SDS011;49000;50.698;13.322;2023-12-04T06:45:07;10.73;;;5.23;;
62903;SDS011;49000;50.698;13.322;2023-12-04T06:47:34;9.73;;;5.00;;
62903;SDS011;49000;50.698;13.322;2023-12-04T06:50:00;11.17;;;5.30;;
62903;SDS011;49000;50.698;13.322;2023-12-04T06:52:25;10.60;;;5.57;;
62903;SDS011;49000;50.698;13.322;2023-12-04T06:54:51;11.53;;;4.83;;
62903;SDS011;49000;50.698;13.322;2023-12-04T06:57:16;10.60;;;4.83;;
62903;SDS011;49000;50.698;13.322;2023-12-04T06:59:42;10.23;;;5.00;;
62903;SDS011;49000;50.698;13.322;2023-12-04T07:02:07;9.80;;;5.13;;
62903;SDS011;49000;50.698;13.322;2023-12-04T07:04:33;10.03;;;4.73;;
62903;SDS011;49000;50.698;13.322;2023-12-04T07:06:59;9.13;;;4.57;;
62903;SDS011;49000;50.698;13.322;2023-12-04T07:09:30;8.37;;;3.97;;
62903;SDS011;49000;50.698;13.322;2023-12-04T07:11:59;6.87;;;3.67;;
62903;SDS011;49000;50.698;13.322;2023-12-04T07:14:25;7.50;;;3.93;;
62903;SDS011;49000;50.698;13.322;2023-12-04T07:16:51;9.40;;;4.40;;
62903;SDS011;49000;50.698;13.322;2023-12-04T07:19:16;6.80;;;3.43;;
62903;SDS011;49000;50.698;13.322;2023-12-04T07:21:42;8.13;;;4.07;;
62903;SDS011;49000;50.698;13.322;2023-12-04T07:24:07;8.27;;;4.00;;
62903;SDS011;49000;50.698;13.322;2023-12-04T07:26:33;6.27;;;3.23;;
62903;SDS011;49000;50.698;13.322;2023-12-04T07:29:00;8.87;;;4.10;;
62903;SDS011;49000;50.698;13.322;2023-12-04T07:31:26;7.53;;;3.60;;
62903;SDS011;49000;50.698;13.322;2023-12-04T07:33:55;6.70;;;3.73;;
62903;SDS011;49000;50.698;13.322;2023-12-04T07:36:21;6.80;;;3.20;;
62903;SDS011;49000;50.698;13.322;2023-12-04T07:38:46;7.40;;;3.60;;
62903;SDS011;49000;50.698;13.322;2023-12-04T07:41:12;6.63;;;3.30;;
62903;SDS011;49000;50.698;13.322;2023-12-04T07:43:38;6.87;;;3.23;;
62903;SDS011;49000;50.698;13.322;2023-12-04T07:46:04;4.70;;;2.90;;
62903;SDS011;49000;50.698;13.322;2023-12-04T07:48:30;6.47;;;3.57;;
62903;SDS011;49000;50.698;13.322;2023-12-04T07:50:56;7.93;;;3.30;;
62903;SDS011;49000;50.698;13.322;2023-12-04T07:53:21;5.90;;;3.23;;
62903;SDS011;49000;50.698;13.322;2023-12-04T07:55:47;6.33;;;3.47;;
62903;SDS011;49000;50.698;13.322;2023-12-04T07:58:14;6.77;;;3.37;;
62903;SDS011;49000;50.698;13.322;2023-12-04T08:00:40;7.30;;;4.00;;
62903;SDS011;49000;50.698;13.322;2023-12-04T08:03:06;5.37;;;3.10;;
62903;SDS011;49000;50.698;13.322;2023-12-04T08:05:32;6.67;;;3.77;;
62903;SDS011;49000;50.698;13.322;2023-12-04T08:07:57;6.60;;;3.57;;
62903;SDS011;49000;50.698;13.322;2023-12-04T08:10:23;6.73;;;3.57;;
62903;SDS011;49000;50.698;13.322;2023-12-04T08:12:48;7.03;;;3.97;;
62903;SDS011;49000;50.698;13.322;2023-12-04T08:15:14;7.03;;;3.83;;
62903;SDS011;49000;50.698;13.322;2023-12-04T08:17:39;8.93;;;4.20;;
62903;SDS011;49000;50.698;13.322;2023-12-04T08:20:05;7.93;;;4.33;;
62903;SDS011;49000;50.698;13.322;2023-12-04T08:22:31;7.87;;;4.13;;
62903;SDS011;49000;50.698;13.322;2023-12-04T08:24:57;8.40;;;4.17;;
62903;SDS011;49000;50.698;13.322;2023-12-04T08:27:23;7.43;;;3.80;;
62903;SDS011;49000;50.698;13.322;2023-12-04T08:29:49;7.10;;;3.67;;
62903;SDS011;49000;50.698;13.322;2023-12-04T08:32:15;6.17;;;3.37;;
62903;SDS011;49000;50.698;13.322;2023-12-04T08:34:40;8.27;;;4.10;;
62903;SDS011;49000;50.698;13.322;2023-12-04T08:37:06;6.80;;;3.90;;
62903;SDS011;49000;50.698;13.322;2023-12-04T08:39:31;7.73;;;4.07;;
62903;SDS011;49000;50.698;13.322;2023-12-04T08:41:57;6.43;;;3.83;;
62903;SDS011;49000;50.698;13.322;2023-12-04T08:44:22;8.37;;;4.00;;
62903;SDS011;49000;50.698;13.322;2023-12-04T08:46:48;6.70;;;3.70;;
62903;SDS011;49000;50.698;13.322;2023-12-04T08:49:14;6.60;;;3.67;;
62903;SDS011;49000;50.698;13.322;2023-12-04T08:51:39;6.03;;;3.10;;
62903;SDS011;49000;50.698;13.322;2023-12-04T08:54:06;7.90;;;4.00;;
62903;SDS011;49000;50.698;13.322;2023-12-04T08:56:32;6.97;;;3.50;;
62903;SDS011;49000;50.698;13.322;2023-12-04T08:58:57;7.13;;;3.60;;
62903;SDS011;49000;50.698;13.322;2023-12-04T09:01:23;8.77;;;4.83;;
62903;SDS011;49000;50.698;13.322;2023-12-04T09:03:48;8.50;;;3.83;;
62903;SDS011;49000;50.698;13.322;2023-12-04T09:06:14;5.90;;;3.27;;
62903;SDS011;49000;50.698;13.322;2023-12-04T09:08:40;6.07;;;3.20;;
62903;SDS011;49000;50.698;13.322;2023-12-04T09:11:06;5.80;;;3.37;;
62903;SDS011;49000;50.698;13.322;2023-12-04T09:13:32;7.80;;;3.67;;
62903;SDS011;49000;50.698;13.322;2023-12-04T09:15:58;5.53;;;3.03;;
62903;SDS011;49000;50.698;13.322;2023-12-04T09:18:24;5.90;;;3.47;;
62903;SDS011;49000;50.698;13.322;2023-12-04T09:20:50;6.80;;;3.60;;
62903;SDS011;49000;50.698;13.322;2023-12-04T09:23:15;7.17;;;4.10;;
62903;SDS011;49000;50.698;13.322;2023-12-04T09:25:41;7.23;;;3.57;;
62903;SDS011;49000;50.698;13.322;2023-12-04T09:28:06;5.73;;;3.40;;
62903;SDS011;49000;50.698;13.322;2023-12-04T09:30:33;8.53;;;4.27;;
62903;SDS011;49000;50.698;13.322;2023-12-04T09:33:00;7.77;;;4.20;;
62903;SDS011;49000;50.698;13.322;2023-12-04T09:35:26;7.83;;;4.10;;
62903;SDS011;49000;50.698;13.322;2023-12-04T09:37:51;6.97;;;3.73;;
62903;SDS011;49000;50.698;13.322;2023-12-04T09:40:17;7.80;;;3.90;;
62903;SDS011;49000;50.698;13.322;2023-12-04T09:42:42;7.90;;;4.33;;
62903;SDS011;49000;50.698;13.322;2023-12-04T09:45:08;8.90;;;4.23;;
62903;SDS011;49000;50.698;13.322;2023-12-04T09:47:34;7.37;;;4.27;;
62903;SDS011;49000;50.698;13.322;2023-12-04T09:50:00;9.30;;;4.40;;
62903;SDS011;49000;50.698;13.322;2023-12-04T09:52:27;8.53;;;4.23;;
62903;SDS011;49000;50.698;13.322;2023-12-04T09:54:53;8.40;;;4.40;;
62903;SDS011;49000;50.698;13.322;2023-12-04T09:57:18;10.07;;;5.03;;
62903;SDS011;49000;50.698;13.322;2023-12-04T09:59:44;9.07;;;4.73;;
62903;SDS011;49000;50.698;13.322;2023-12-04T10:02:10;11.80;;;5.47;;
62903;SDS011;49000;50.698;13.322;2023-12-04T10:04:36;11.03;;;5.07;;
62903;SDS011;49000;50.698;13.322;2023-12-04T10:07:02;10.63;;;4.87;;
62903;SDS011;49000;50.698;13.322;2023-12-04T10:09:28;10.23;;;5.00;;
62903;SDS011;49000;50.698;13.322;2023-12-04T10:11:55;11.47;;;5.10;;
62903;SDS011;49000;50.698;13.322;2023-12-04T10:14:21;8.30;;;4.70;;
62903;SDS011;49000;50.698;13.322;2023-12-04T10:16:48;9.47;;;4.40;;
62903;SDS011;49000;50.698;13.322;2023-12-04T10:19:27;9.23;;;4.20;;
62903;SDS011;49000;50.698;13.322;2023-12-04T10:21:57;9.27;;;4.67;;
62903;SDS011;49000;50.698;13.322;2023-12-04T10:26:56;8.80;;;4.50;;
62903;SDS011;49000;50.698;13.322;2023-12-04T10:29:21;7.70;;;4.37;;
62903;SDS011;49000;50.698;13.322;2023-12-04T10:31:47;8.10;;;4.20;;
62903;SDS011;49000;50.698;13.322;2023-12-04T10:34:15;8.10;;;4.00;;
62903;SDS011;49000;50.698;13.322;2023-12-04T10:36:41;9.00;;;4.53;;
62903;SDS011;49000;50.698;13.322;2023-12-04T10:39:06;8.87;;;4.10;;
62903;SDS011;49000;50.698;13.322;2023-12-04T10:41:32;8.33;;;4.50;;
62903;SDS011;49000;50.698;13.322;2023-12-04T10:43:58;8.77;;;4.30;;
62903;SDS011;49000;50.698;13.322;2023-12-04T10:46:25;8.93;;;4.57;;
62903;SDS011;49000;50.698;13.322;2023-12-04T10:48:51;7.10;;;3.90;;
62903;SDS011;49000;50.698;13.322;2023-12-04T10:51:18;7.77;;;4.23;;
62903;SDS011;49000;50.698;13.322;2023-12-04T10:53:44;9.43;;;4.77;;
62903;SDS011;49000;50.698;13.322;2023-12-04T10:56:10;9.73;;;4.80;;
62903;SDS011;49000;50.698;13.322;2023-12-04T10:58:49;8.60;;;4.40;;
62903;SDS011;49000;50.698;13.322;2023-12-04T11:01:16;9.50;;;5.00;;
62903;SDS011;49000;50.698;13.322;2023-12-04T11:03:44;9.37;;;4.67;;
62903;SDS011;49000;50.698;13.322;2023-12-04T11:06:12;7.33;;;4.07;;
62903;SDS011;49000;50.698;13.322;2023-12-04T11:08:41;8.77;;;4.30;;
62903;SDS011;49000;50.698;13.322;2023-12-04T11:11:08;8.53;;;4.40;;
62903;SDS011;49000;50.698;13.322;2023-12-04T11:13:38;9.43;;;4.43;;
62903;SDS011;49000;50.698;13.322;2023-12-04T11:16:20;9.80;;;5.07;;
62903;SDS011;49000;50.698;13.322;2023-12-04T11:19:28;8.17;;;4.80;;
62903;SDS011;49000;50.698;13.322;2023-12-04T11:21:50;9.73;;;4.73;;
62903;SDS011;49000;50.698;13.322;2023-12-04T11:24:18;9.27;;;4.63;;
62903;SDS011;49000;50.698;13.322;2023-12-04T11:26:43;9.07;;;4.97;;
62903;SDS011;49000;50.698;13.322;2023-12-04T11:29:09;9.80;;;5.37;;
62903;SDS011;49000;50.698;13.322;2023-12-04T11:31:37;9.97;;;4.70;;
62903;SDS011;49000;50.698;13.322;2023-12-04T11:34:03;9.90;;;4.73;;
62903;SDS011;49000;50.698;13.322;2023-12-04T11:36:29;7.30;;;3.93;;
62903;SDS011;49000;50.698;13.322;2023-12-04T11:38:54;9.80;;;5.50;;
62903;SDS011;49000;50.698;13.322;2023-12-04T11:41:22;8.10;;;4.60;;
62903;SDS011;49000;50.698;13.322;2023-12-04T11:43:49;8.43;;;5.10;;
62903;SDS011;49000;50.698;13.322;2023-12-04T11:46:21;9.50;;;4.50;;
62903;SDS011;49000;50.698;13.322;2023-12-04T11:48:49;7.93;;;4.47;;
62903;SDS011;49000;50.698;13.322;2023-12-04T11:52:00;8.27;;;4.40;;
62903;SDS011;49000;50.698;13.322;2023-12-04T11:54:03;8.30;;;4.37;;
62903;SDS011;49000;50.698;13.322;2023-12-04T11:56:32;7.70;;;3.63;;
62903;SDS011;49000;50.698;13.322;2023-12-04T11:59:04;6.97;;;3.80;;
62903;SDS011;49000;50.698;13.322;2023-12-04T12:01:36;7.37;;;4.50;;
62903;SDS011;49000;50.698;13.322;2023-12-04T12:04:05;8.63;;;4.37;;
62903;SDS011;49000;50.698;13.322;2023-12-04T12:06:31;6.40;;;4.20;;
62903;SDS011;49000;50.698;13.322;2023-12-04T12:08:57;8.87;;;4.03;;
62903;SDS011;49000;50.698;13.322;2023-12-04T12:11:26;9.13;;;4.10;;
62903;SDS011;49000;50.698;13.322;2023-12-04T12:13:54;8.80;;;4.63;;
62903;SDS011;49000;50.698;13.322;2023-12-04T12:16:20;9.03;;;4.63;;
62903;SDS011;49000;50.698;13.322;2023-12-04T12:18:46;8.10;;;4.30;;
62903;SDS011;49000;50.698;13.322;2023-12-04T12:21:12;7.10;;;3.67;;
62903;SDS011;49000;50.698;13.322;2023-12-04T12:23:38;7.20;;;4.23;;
62903;SDS011;49000;50.698;13.322;2023-12-04T12:26:03;6.50;;;4.03;;
62903;SDS011;49000;50.698;13.322;2023-12-04T12:28:29;7.73;;;4.33;;
62903;SDS011;49000;50.698;13.322;2023-12-04T12:30:55;8.13;;;4.10;;
62903;SDS011;49000;50.698;13.322;2023-12-04T12:33:20;7.43;;;3.97;;
62903;SDS011;49000;50.698;13.322;2023-12-04T12:35:47;6.83;;;4.10;;
62903;SDS011;49000;50.698;13.322;2023-12-04T12:38:13;7.77;;;4.33;;
62903;SDS011;49000;50.698;13.322;2023-12-04T12:40:39;7.93;;;4.10;;
62903;SDS011;49000;50.698;13.322;2023-12-04T12:43:05;8.03;;;3.93;;
62903;SDS011;49000;50.698;13.322;2023-12-04T12:45:41;6.90;;;3.97;;
62903;SDS011;49000;50.698;13.322;2023-12-04T12:48:12;8.73;;;4.17;;
62903;SDS011;49000;50.698;13.322;2023-12-04T12:50:38;7.93;;;3.93;;
62903;SDS011;49000;50.698;13.322;2023-12-04T12:53:04;6.83;;;3.77;;
62903;SDS011;49000;50.698;13.322;2023-12-04T12:55:29;7.00;;;4.20;;
62903;SDS011;49000;50.698;13.322;2023-12-04T12:57:55;7.23;;;4.20;;
62903;SDS011;49000;50.698;13.322;2023-12-04T13:00:21;9.30;;;4.67;;
62903;SDS011;49000;50.698;13.322;2023-12-04T13:02:47;7.77;;;4.13;;
62903;SDS011;49000;50.698;13.322;2023-12-04T13:05:13;9.80;;;5.03;;
62903;SDS011;49000;50.698;13.322;2023-12-04T13:07:38;7.97;;;4.57;;
62903;SDS011;49000;50.698;13.322;2023-12-04T13:10:04;6.33;;;3.83;;
62903;SDS011;49000;50.698;13.322;2023-12-04T13:12:30;8.53;;;4.70;;
62903;SDS011;49000;50.698;13.322;2023-12-04T13:14:57;8.23;;;4.60;;
62903;SDS011;49000;50.698;13.322;2023-12-04T13:17:22;7.87;;;4.47;;
62903;SDS011;49000;50.698;13.322;2023-12-04T13:19:48;8.17;;;4.67;;
62903;SDS011;49000;50.698;13.322;2023-12-04T13:22:13;9.50;;;4.73;;
62903;SDS011;49000;50.698;13.322;2023-12-04T13:24:39;7.57;;;3.90;;
62903;SDS011;49000;50.698;13.322;2023-12-04T13:27:06;10.73;;;5.07;;
62903;SDS011;49000;50.698;13.322;2023-12-04T13:29:31;8.03;;;5.00;;
62903;SDS011;49000;50.698;13.322;2023-12-04T13:31:57;9.77;;;5.37;;
62903;SDS011;49000;50.698;13.322;2023-12-04T13:34:24;11.67;;;6.00;;
62903;SDS011;49000;50.698;13.322;2023-12-04T13:36:49;11.03;;;5.90;;
62903;SDS011;49000;50.698;13.322;2023-12-04T13:39:15;12.20;;;5.87;;
62903;SDS011;49000;50.698;13.322;2023-12-04T13:41:51;12.90;;;6.83;;
62903;SDS011;49000;50.698;13.322;2023-12-04T13:44:35;13.83;;;6.43;;
62903;SDS011;49000;50.698;13.322;2023-12-04T13:47:01;13.43;;;6.80;;
62903;SDS011;49000;50.698;13.322;2023-12-04T13:49:27;13.43;;;6.43;;
62903;SDS011;49000;50.698;13.322;2023-12-04T13:51:52;11.63;;;6.27;;
62903;SDS011;49000;50.698;13.322;2023-12-04T13:54:18;12.90;;;6.60;;
62903;SDS011;49000;50.698;13.322;2023-12-04T13:56:46;16.03;;;7.17;;
62903;SDS011;49000;50.698;13.322;2023-12-04T13:59:19;16.07;;;7.20;;
62903;SDS011;49000;50.698;13.322;2023-12-04T14:01:46;16.40;;;7.90;;
62903;SDS011;49000;50.698;13.322;2023-12-04T14:04:14;18.33;;;7.90;;
62903;SDS011;49000;50.698;13.322;2023-12-04T14:06:40;14.07;;;6.60;;
62903;SDS011;49000;50.698;13.322;2023-12-04T14:09:06;16.13;;;7.20;;
62903;SDS011;49000;50.698;13.322;2023-12-04T14:11:41;12.87;;;6.77;;
62903;SDS011;49000;50.698;13.322;2023-12-04T14:14:08;14.73;;;7.27;;
62903;SDS011;49000;50.698;13.322;2023-12-04T14:16:34;15.13;;;7.27;;
62903;SDS011;49000;50.698;13.322;2023-12-04T14:18:59;14.07;;;7.57;;
62903;SDS011;49000;50.698;13.322;2023-12-04T14:21:25;16.63;;;8.70;;
62903;SDS011;49000;50.698;13.322;2023-12-04T14:23:51;16.43;;;8.17;;
62903;SDS011;49000;50.698;13.322;2023-12-04T14:26:16;16.77;;;7.53;;
62903;SDS011;49000;50.698;13.322;2023-12-04T14:28:42;13.83;;;7.60;;
62903;SDS011;49000;50.698;13.322;2023-12-04T14:31:07;15.63;;;7.83;;